Hlavní strana
METAR-TAF:

METAR-TAF

Letiště :

Astrachaň, Rusko

zeměpisná šířka: 46-17N, zeměpisná délka: 048-00-23E, výška: 0 m

Aktuální stav počasí

Zpráva byla vytvořena před 28 minutami, v 02:30 UTC
Jižní vítr 6 kt
Teplota 2°C
Vlhkost vzduchu 87%
Tlak 1022 hPa
Viditelnost: 3200 m
kouřmo

METAR: URWA 050230Z 19003MPS 3200 BR NSC 02/00 Q1022 R27/////// NOSIG RMK QFE769/1025

Čas: 06:58 (02:58 UTC)

Předpověď počasí

Zpráva byla vytvořena před 58 minutami, v 02:00 UTC
Předpověď platná od 05 v 03 UTC do 05 v 12 UTC
Jihozápadní vítr 6 kt s nárazy do 17 kt
Viditelnost: 3100 m
Polojasno ve výšce 1500 ft
kouřmo
Dočasný
od 05 v 03 UTC do 05 v 04 UTC
Viditelnost: 0300 m
mlha
Od 05 v 0600 UTC
Západní vítr 10 kt s nárazy do 23 kt
Viditelnost: 6000 m
Polojasno ve výšce 2000 ft

TAF: URWA 050200Z 0503/0512 23003G09MPS 3100 BR SCT015 TEMPO 0503/0504 0300 FG FM050600 26005G12MPS 6000 SCT020

Stav a předpovědi počasí z více než 4 000 letišť (zprávy METAR a TAF).

Červené a žluté tečky na mapě představují dostupné meteorologické stanice.

Když kurzor umístíte na tečku, zobrazí se název stanice.

Pak kliknutím zobrazíte stav a předpověď počasí.

Chcete-li změnit mapu, kliknutím na zelené tlačítko se znaménkem +mapu přiblížíte, kliknutím na zelené tlačítko se znaménkem – mapu oddálíte a kliknutím na zelené šipky přejdete na sousední mapy.


METAR-TAF: